TLV12 LLHZ-LLHZ

Flight info

Callsign TLV12
Flight time N/A
Altitude 1000
Route /
Aircraft AS50/L-S/C

Departure

Time 2026-04-18 10:12
Airport Herzliya Airport (LLHZ)

Arrival

Time N/A
Airport Herzliya Airport (LLHZ)
Time Latitude Longitude Altitude Speed Heading
2026-04-18 10:02 31.96785 34.75226 64 ft 0 kts 12°
2026-04-18 10:05 31.96786 34.75230 64 ft 0 kts 209°
2026-04-18 10:05 31.96787 34.75231 67 ft 1 kts 208°
2026-04-18 10:05 31.96791 34.75229 64 ft 0 kts 210°
2026-04-18 10:05 31.96787 34.75220 99 ft 10 kts 218°
2026-04-18 10:06 31.96769 34.74954 165 ft 62 kts 263°
2026-04-18 10:06 31.96296 34.74686 216 ft 97 kts 178°
2026-04-18 10:06 31.95855 34.75334 279 ft 106 kts 134°
2026-04-18 10:06 31.95633 34.76278 349 ft 124 kts 98°
2026-04-18 10:07 31.95643 34.77301 421 ft 121 kts 126°
2026-04-18 10:07 31.94980 34.77756 396 ft 117 kts 160°
2026-04-18 10:07 31.94491 34.78570 502 ft 140 kts 110°
2026-04-18 10:07 31.94202 34.79750 386 ft 146 kts 109°
2026-04-18 10:08 31.93945 34.80867 465 ft 138 kts 116°
2026-04-18 10:08 31.93345 34.81708 493 ft 133 kts 143°
2026-04-18 10:08 31.92858 34.82680 387 ft 148 kts 134°
2026-04-18 10:08 31.92216 34.83633 480 ft 154 kts 132°
2026-04-18 10:09 31.91933 34.84836 445 ft 149 kts 113°
2026-04-18 10:09 31.91741 34.86014 431 ft 152 kts 122°
2026-04-18 10:09 31.91232 34.87048 475 ft 146 kts 115°
2026-04-18 10:09 31.91063 34.88189 508 ft 140 kts 99°
2026-04-18 10:10 31.90995 34.89376 513 ft 146 kts 111°
2026-04-18 10:10 31.90532 34.90335 608 ft 136 kts 127°
2026-04-18 10:10 31.89947 34.91262 583 ft 141 kts 147°
2026-04-18 10:10 31.89231 34.92011 580 ft 146 kts 125°
2026-04-18 10:11 31.88704 34.93050 549 ft 151 kts 128°
2026-04-18 10:11 31.87963 34.93737 608 ft 141 kts 137°
2026-04-18 10:11 31.87178 34.94438 571 ft 139 kts 151°
2026-04-18 10:11 31.86598 34.95323 692 ft 145 kts 133°
2026-04-18 10:12 31.85932 34.96054 957 ft 127 kts 102°
2026-04-18 10:12 31.86274 34.96157 704 ft 62 kts 258°
2026-04-18 10:12 31.86036 34.95713 687 ft 80 kts 222°
2026-04-18 10:12 31.85445 34.96063 787 ft 107 kts 149°
2026-04-18 10:13 31.84899 34.96642 815 ft 108 kts 156°
2026-04-18 10:13 31.84384 34.97371 887 ft 125 kts 125°
2026-04-18 10:13 31.84048 34.98327 953 ft 121 kts 132°
2026-04-18 10:13 31.83386 34.98823 927 ft 114 kts 190°
2026-04-18 10:14 31.82713 34.99312 982 ft 144 kts 127°
2026-04-18 10:14 31.82562 35.00417 999 ft 138 kts 120°
2026-04-18 10:14 31.82322 35.01475 924 ft 151 kts 126°
2026-04-18 10:14 31.81655 35.02301 1184 ft 134 kts 149°
2026-04-18 10:15 31.81153 35.03006 1358 ft 125 kts 163°
2026-04-18 10:15 31.79998 35.05221 2229 ft 117 kts 82°
2026-04-18 10:16 31.80437 35.06274 2125 ft 165 kts 91°
2026-04-18 10:16 31.80052 35.07475 2265 ft 152 kts 116°
2026-04-18 10:16 31.79991 35.08610 2378 ft 133 kts 108°
2026-04-18 10:16 31.79555 35.09563 2329 ft 143 kts 123°
2026-04-18 10:17 31.79212 35.10688 2266 ft 135 kts 127°
2026-04-18 10:17 31.78674 35.11495 2430 ft 111 kts 146°
2026-04-18 10:17 31.77926 35.12090 2432 ft 153 kts 152°
2026-04-18 10:17 31.77070 35.12812 2323 ft 146 kts 157°
2026-04-18 10:18 31.76168 35.13233 2437 ft 146 kts 164°
2026-04-18 10:18 31.75384 35.13725 2741 ft 116 kts 125°
2026-04-18 10:18 31.75198 35.14617 2869 ft 121 kts 133°
2026-04-18 10:18 31.74737 35.15585 2872 ft 128 kts 126°
2026-04-18 10:19 31.74431 35.16651 2887 ft 152 kts 116°
2026-04-18 10:19 31.74127 35.17739 3074 ft 132 kts 113°
2026-04-18 10:19 31.73872 35.18743 3246 ft 128 kts 113°
2026-04-18 10:19 31.73609 35.19791 3267 ft 132 kts 129°
2026-04-18 10:20 31.73306 35.20779 3424 ft 136 kts 118°
2026-04-18 10:20 31.73018 35.21922 3336 ft 144 kts 108°
2026-04-18 10:20 31.72872 35.23070 3421 ft 146 kts 108°
2026-04-18 10:20 31.72726 35.24285 3436 ft 148 kts 107°
2026-04-18 10:21 31.72512 35.25460 3417 ft 146 kts 112°
2026-04-18 10:21 31.72247 35.26671 3366 ft 164 kts 109°
2026-04-18 10:21 31.71904 35.27951 3312 ft 165 kts 111°
2026-04-18 10:21 31.71594 35.29214 3337 ft 154 kts 116°
2026-04-18 10:22 31.71311 35.30454 3295 ft 165 kts 109°
2026-04-18 10:22 31.71015 35.31771 3193 ft 159 kts 109°
2026-04-18 10:22 31.70650 35.32953 2449 ft 179 kts 118°
2026-04-18 10:22 31.70008 35.34396 1046 ft 216 kts 122°
2026-04-18 10:23 31.69437 35.35948 590 ft 199 kts 119°
2026-04-18 10:23 31.69059 35.37311 525 ft 171 kts 108°
2026-04-18 10:23 31.68710 35.38665 482 ft 179 kts 109°
2026-04-18 10:23 31.68345 35.40057 274 ft 170 kts 111°
2026-04-18 10:24 31.68077 35.41331 108 ft 160 kts 129°
2026-04-18 10:24 31.67939 35.42589 -20 ft 157 kts 90°
2026-04-18 10:24 31.67725 35.43963 -701 ft 188 kts 112°
2026-04-18 10:24 31.66801 35.44893 -1031 ft 175 kts 167°
2026-04-18 10:25 31.65771 35.44539 -1254 ft 152 kts 205°
2026-04-18 10:25 31.64814 35.44043 -1245 ft 146 kts 204°
2026-04-18 10:25 31.63959 35.43460 -1303 ft 141 kts 221°
2026-04-18 10:25 31.63064 35.43055 -1344 ft 136 kts 192°
2026-04-18 10:26 31.62154 35.42785 -1335 ft 136 kts 202°
2026-04-18 10:26 31.61327 35.42479 -1233 ft 112 kts 207°
2026-04-18 10:26 31.60573 35.42124 -1179 ft 124 kts 206°
2026-04-18 10:26 31.59741 35.41771 -1178 ft 124 kts 208°
2026-04-18 10:27 31.58889 35.41580 -1341 ft 127 kts 195°
2026-04-18 10:27 31.57997 35.41556 -1267 ft 131 kts 179°
2026-04-18 10:27 31.57139 35.41762 -1308 ft 123 kts 187°
2026-04-18 10:27 31.56324 35.41513 -1303 ft 122 kts 210°
2026-04-18 10:28 31.55766 35.40897 -1282 ft 110 kts 246°
2026-04-18 10:28 31.55007 35.40615 -1252 ft 127 kts 195°
2026-04-18 10:28 31.54079 35.40446 -1258 ft 135 kts 193°
2026-04-18 10:28 31.53190 35.40378 -1270 ft 134 kts 146°
2026-04-18 10:29 31.52402 35.40824 -1195 ft 127 kts 170°
2026-04-18 10:29 31.51590 35.41071 -1115 ft 119 kts 174°
2026-04-18 10:29 31.50765 35.41028 -1165 ft 125 kts 186°
2026-04-18 10:29 31.49932 35.40910 -1179 ft 120 kts 198°
2026-04-18 10:30 31.49124 35.40624 -1236 ft 126 kts 205°
2026-04-18 10:30 31.48296 35.40560 -1110 ft 116 kts 167°
2026-04-18 10:30 31.47448 35.40651 -1244 ft 137 kts 185°
2026-04-18 10:30 31.46540 35.40649 -1287 ft 122 kts 183°
2026-04-18 10:31 31.45717 35.40860 -1226 ft 134 kts 136°
2026-04-18 10:31 31.45036 35.41289 -1342 ft 115 kts 209°
2026-04-18 10:31 31.44283 35.41287 -1224 ft 122 kts 184°
2026-04-18 10:31 31.43511 35.41066 -1265 ft 120 kts 202°
2026-04-18 10:32 31.42724 35.40763 -1329 ft 117 kts 202°
2026-04-18 10:32 31.41902 35.40624 -1313 ft 124 kts 179°
2026-04-18 10:32 31.41035 35.40768 -1259 ft 130 kts 178°
2026-04-18 10:32 31.40163 35.40824 -1241 ft 122 kts 183°
2026-04-18 10:33 31.39339 35.40897 -1230 ft 122 kts 178°
2026-04-18 10:33 31.38532 35.40711 -1224 ft 117 kts 205°
2026-04-18 10:33 31.37710 35.40463 -1220 ft 123 kts 194°
2026-04-18 10:33 31.36877 35.40288 -1210 ft 121 kts 192°
2026-04-18 10:34 31.36094 35.40081 -1142 ft 114 kts 195°
2026-04-18 10:34 31.35294 35.39860 -1122 ft 120 kts 198°
2026-04-18 10:34 31.34542 35.39537 -1151 ft 116 kts 192°
2026-04-18 10:34 31.33829 35.39208 -1075 ft 113 kts 226°
2026-04-18 10:35 31.33024 35.38892 -1212 ft 124 kts 194°
2026-04-18 10:35 31.32313 35.39137 -1186 ft 130 kts 121°
2026-04-18 10:35 31.32222 35.38842 -1193 ft 106 kts 341°
2026-04-18 10:35 31.32752 35.38856 -1203 ft 52 kts
2026-04-18 10:36 31.32866 35.38883 -1203 ft 11 kts 359°
2026-04-18 10:36 31.32970 35.38831 -1239 ft 2 kts 282°
2026-04-18 10:36 31.32972 35.38832 -1269 ft 0 kts 277°
2026-04-18 10:39 31.32972 35.38830 -1249 ft 0 kts 274°
2026-04-18 10:39 31.32971 35.38837 -1263 ft 0 kts 281°
2026-04-18 10:40 31.32971 35.38834 -1258 ft 0 kts 278°
2026-04-18 10:41 31.32842 35.38854 -1181 ft 22 kts 153°
2026-04-18 10:41 31.32877 35.38873 -1230 ft 8 kts
2026-04-18 10:41 31.33092 35.38885 -1147 ft 56 kts 345°
2026-04-18 10:41 31.33489 35.39081 -1066 ft 71 kts 358°
2026-04-18 10:42 31.33251 35.38948 -1193 ft 100 kts 194°
2026-04-18 10:42 31.32438 35.38774 -1266 ft 132 kts 194°
2026-04-18 10:42 31.31471 35.38770 -1295 ft 146 kts 190°
2026-04-18 10:42 31.30491 35.38597 -1247 ft 141 kts 187°
2026-04-18 10:43 31.29506 35.38666 -1216 ft 138 kts 187°
2026-04-18 10:43 31.28709 35.38243 -953 ft 121 kts 213°
2026-04-18 10:43 31.27848 35.38113 -1034 ft 130 kts 194°
2026-04-18 10:43 31.26937 35.37853 -1085 ft 138 kts 198°
2026-04-18 10:44 31.26000 35.37553 -1121 ft 141 kts 196°
2026-04-18 10:44 31.25363 35.37412 -1074 ft 139 kts 194°
2026-04-18 10:44 31.24437 35.37143 -1101 ft 140 kts 200°
2026-04-18 10:44 31.23483 35.36876 -1117 ft 144 kts 195°
2026-04-18 10:45 31.22483 35.36672 -1133 ft 148 kts 194°
2026-04-18 10:45 31.21119 35.36526 -1160 ft 153 kts 178°
2026-04-18 10:45 31.20054 35.36693 -1252 ft 156 kts 180°
2026-04-18 10:45 31.19328 35.36693 -1241 ft 154 kts 179°
2026-04-18 10:46 31.18255 35.36869 -1263 ft 156 kts 172°
2026-04-18 10:46 31.17196 35.36974 -1234 ft 151 kts 187°
2026-04-18 10:46 31.16162 35.36872 -1222 ft 151 kts 189°
2026-04-18 10:46 31.15124 35.36704 -1154 ft 147 kts 189°
2026-04-18 10:47 31.14119 35.36530 -1043 ft 143 kts 191°
2026-04-18 10:47 31.13150 35.36327 -919 ft 138 kts 190°
2026-04-18 10:47 31.12184 35.36188 -936 ft 139 kts 183°
2026-04-18 10:47 31.11299 35.35953 -878 ft 128 kts 206°
2026-04-18 10:48 31.10407 35.35684 -809 ft 140 kts 194°
2026-04-18 10:48 31.09420 35.35454 -849 ft 147 kts 195°
2026-04-18 10:48 31.08430 35.35146 -819 ft 142 kts 198°
2026-04-18 10:48 31.07489 35.34946 -687 ft 139 kts 189°
2026-04-18 10:49 31.06500 35.34798 -627 ft 142 kts 191°
2026-04-18 10:49 31.05529 35.34741 -745 ft 142 kts 188°
2026-04-18 10:49 31.04522 35.34594 -788 ft 152 kts 189°
2026-04-18 10:49 31.03455 35.34449 -860 ft 153 kts 187°
2026-04-18 10:50 31.02422 35.34272 -902 ft 149 kts 192°
2026-04-18 10:50 31.01425 35.33878 -1072 ft 151 kts 201°
2026-04-18 10:50 31.00457 35.33496 -1030 ft 147 kts 200°
2026-04-18 10:50 30.99461 35.33734 -1034 ft 159 kts 155°
2026-04-18 10:51 30.98490 35.34265 -963 ft 151 kts 159°
2026-04-18 10:51 30.97524 35.34745 -979 ft 152 kts 165°
2026-04-18 10:51 30.96536 35.35176 -929 ft 151 kts 153°
2026-04-18 10:51 30.95662 35.35923 -1032 ft 155 kts 153°
2026-04-18 10:52 30.94695 35.36386 -1041 ft 148 kts 161°
2026-04-18 10:52 30.93785 35.36948 -963 ft 144 kts 151°
2026-04-18 10:52 30.93140 35.37779 -794 ft 146 kts 113°
2026-04-18 10:52 30.93413 35.38911 -818 ft 105 kts 50°
2026-04-18 10:53 30.94015 35.39205 -1086 ft 90 kts 314°
2026-04-18 10:53 30.94079 35.38791 -1099 ft 40 kts 208°
2026-04-18 10:53 30.93932 35.38862 -1092 ft 64 kts 333°
2026-04-18 10:53 30.94008 35.38688 -1164 ft 73 kts 107°
2026-04-18 10:54 30.94100 35.38790 -1185 ft 51 kts 214°
2026-04-18 10:54 30.94021 35.38793 -1194 ft 0 kts
2026-04-18 10:55 30.94022 35.38793 -1194 ft 0 kts
2026-04-18 10:57 30.94072 35.38758 -1159 ft 9 kts 174°
2026-04-18 10:57 30.94078 35.38793 -1193 ft 4 kts 151°
2026-04-18 10:57 30.94083 35.38793 -1198 ft 0 kts 150°
2026-04-18 10:57 30.94082 35.38798 -1199 ft 0 kts 195°
2026-04-18 10:58 30.94071 35.38801 -1182 ft 5 kts 196°
2026-04-18 10:58 30.94044 35.38792 -1133 ft 1 kts 198°
2026-04-18 10:58 30.94046 35.38791 -1155 ft 1 kts 196°
2026-04-18 10:58 30.93983 35.38810 -1104 ft 20 kts
2026-04-18 10:59 30.94021 35.38797 -1191 ft 4 kts 323°
2026-04-18 10:59 30.94023 35.38794 -1194 ft 0 kts 308°
2026-04-18 10:59 30.94024 35.38794 -1194 ft 0 kts 307°
2026-04-18 11:00 30.94017 35.38794 -1169 ft 4 kts 202°
2026-04-18 11:00 30.94018 35.38789 -1191 ft 0 kts 189°
2026-04-18 11:01 30.94020 35.38792 -1175 ft 8 kts 337°
2026-04-18 11:01 30.94247 35.38598 -1139 ft 77 kts 315°
2026-04-18 11:02 30.95566 35.38090 -1065 ft 133 kts 329°
2026-04-18 11:02 30.96443 35.37528 -1117 ft 142 kts 320°
2026-04-18 11:02 30.97218 35.36706 -1182 ft 152 kts 302°
2026-04-18 11:02 30.97766 35.35707 -1217 ft 154 kts 301°
2026-04-18 11:03 30.98523 35.34891 -1057 ft 140 kts 302°
2026-04-18 11:03 30.99312 35.34297 -1037 ft 154 kts 337°
2026-04-18 11:03 31.00363 35.34035 -880 ft 152 kts 341°
2026-04-18 11:03 31.01015 35.33646 -920 ft 116 kts 244°
2026-04-18 11:04 31.01247 35.33065 -805 ft 127 kts 346°
2026-04-18 11:04 31.02245 35.33018 -708 ft 141 kts 335°
2026-04-18 11:04 31.03103 35.32541 -423 ft 139 kts 327°
2026-04-18 11:04 31.03985 35.32123 -107 ft 125 kts 329°
2026-04-18 11:05 31.04697 35.31575 257 ft 123 kts 307°
2026-04-18 11:05 31.05434 35.30985 530 ft 128 kts 322°
2026-04-18 11:05 31.05961 35.30277 758 ft 107 kts 301°
2026-04-18 11:05 31.06480 35.29582 867 ft 117 kts 283°
2026-04-18 11:06 31.06536 35.28575 607 ft 132 kts 252°
2026-04-18 11:06 31.06632 35.27578 736 ft 117 kts 259°
2026-04-18 11:06 31.06674 35.26697 848 ft 113 kts 274°
2026-04-18 11:06 31.06463 35.25994 987 ft 108 kts 300°
2026-04-18 11:07 31.06452 35.25211 1079 ft 117 kts 280°
2026-04-18 11:07 31.07037 35.24521 1288 ft 120 kts 304°
2026-04-18 11:07 31.07694 35.23858 1351 ft 132 kts 307°
2026-04-18 11:07 31.08482 35.23222 1506 ft 133 kts 324°
2026-04-18 11:08 31.09084 35.22431 1257 ft 138 kts 252°
2026-04-18 11:08 31.08826 35.21385 1267 ft 130 kts 261°
2026-04-18 11:08 31.08821 35.20357 1330 ft 125 kts 265°
2026-04-18 11:08 31.08608 35.19312 1158 ft 145 kts 271°
2026-04-18 11:09 31.08618 35.18142 1232 ft 143 kts 266°
2026-04-18 11:09 31.08491 35.17008 1178 ft 141 kts 240°
2026-04-18 11:09 31.08108 35.15906 1058 ft 146 kts 257°
2026-04-18 11:09 31.07598 35.15022 1155 ft 140 kts 223°
2026-04-18 11:10 31.07196 35.14122 1422 ft 113 kts 271°
2026-04-18 11:10 31.07321 35.13252 1625 ft 108 kts 274°
2026-04-18 11:10 31.07477 35.12392 1950 ft 122 kts 291°
2026-04-18 11:10 31.07979 35.11461 1728 ft 140 kts 279°
2026-04-18 11:11 31.08052 35.10312 1739 ft 146 kts 264°
2026-04-18 11:11 31.08086 35.09130 1717 ft 153 kts 271°
2026-04-18 11:11 31.08148 35.07902 1770 ft 149 kts 265°
2026-04-18 11:11 31.07822 35.06987 1752 ft 120 kts 244°
2026-04-18 11:12 31.07638 35.06170 1980 ft 82 kts 278°
2026-04-18 11:12 31.07851 35.05545 1907 ft 84 kts 274°
2026-04-18 11:12 31.07772 35.04849 2119 ft 72 kts 257°
2026-04-18 11:12 31.07583 35.04311 2238 ft 81 kts 227°
2026-04-18 11:13 31.07307 35.03689 2367 ft 105 kts 256°
2026-04-18 11:13 31.07376 35.02737 2482 ft 128 kts 270°
2026-04-18 11:13 31.07386 35.01689 2493 ft 137 kts 269°
2026-04-18 11:13 31.07532 35.00524 2348 ft 152 kts 276°
2026-04-18 11:14 31.07900 34.99366 2377 ft 151 kts 283°
2026-04-18 11:14 31.08339 34.98230 2321 ft 154 kts 289°
2026-04-18 11:14 31.08687 34.97106 2302 ft 141 kts 271°
2026-04-18 11:14 31.08644 34.95963 2272 ft 142 kts 269°
2026-04-18 11:15 31.08902 34.94865 2441 ft 146 kts 282°
2026-04-18 11:15 31.08831 34.93684 2261 ft 153 kts 249°
2026-04-18 11:15 31.08367 34.92547 2173 ft 155 kts 240°
2026-04-18 11:15 31.07923 34.91511 2417 ft 140 kts 250°
2026-04-18 11:16 31.07776 34.90357 2330 ft 144 kts 251°
2026-04-18 11:16 31.07671 34.89186 2258 ft 150 kts 262°
2026-04-18 11:16 31.07558 34.88009 2338 ft 135 kts 255°
2026-04-18 11:16 31.07404 34.86907 2332 ft 137 kts 256°
2026-04-18 11:17 31.07301 34.85791 2302 ft 144 kts 271°
2026-04-18 11:17 31.07551 34.84663 2366 ft 151 kts 281°
2026-04-18 11:17 31.08257 34.83625 2184 ft 180 kts 315°
2026-04-18 11:17 31.09408 34.82930 2039 ft 185 kts 324°
2026-04-18 11:18 31.10506 34.82205 2018 ft 181 kts 323°
2026-04-18 11:18 31.11617 34.81513 1941 ft 182 kts 327°
2026-04-18 11:18 31.12771 34.80965 1945 ft 181 kts 334°
2026-04-18 11:18 31.13917 34.80468 1779 ft 160 kts 335°
2026-04-18 11:19 31.15146 34.80545 1336 ft 176 kts
2026-04-18 11:19 31.16099 34.80511 1354 ft 133 kts 337°
2026-04-18 11:19 31.17099 34.80589 1397 ft 160 kts
2026-04-18 11:19 31.18147 34.80813 1362 ft 154 kts 345°
2026-04-18 11:20 31.19276 34.80690 1222 ft 164 kts 341°
2026-04-18 11:20 31.20437 34.80511 1173 ft 170 kts 353°
2026-04-18 11:20 31.21616 34.80633 1196 ft 173 kts
2026-04-18 11:20 31.22813 34.80786 1233 ft 173 kts 357°
2026-04-18 11:21 31.23831 34.80411 1442 ft 144 kts 309°
2026-04-18 11:21 31.24602 34.79600 1331 ft 159 kts 315°
2026-04-18 11:21 31.25439 34.78772 1365 ft 152 kts 308°
2026-04-18 11:21 31.25644 34.77651 1205 ft 151 kts 255°
2026-04-18 11:22 31.25583 34.76458 1270 ft 155 kts 292°
2026-04-18 11:22 31.26370 34.75473 1079 ft 169 kts 299°
2026-04-18 11:22 31.26991 34.74347 1029 ft 166 kts 294°
2026-04-18 11:22 31.27713 34.73359 869 ft 149 kts 310°
2026-04-18 11:23 31.28365 34.72643 768 ft 98 kts 308°
2026-04-18 11:23 31.28636 34.72355 739 ft 25 kts 301°
2026-04-18 11:23 31.28749 34.72317 675 ft 6 kts 258°
2026-04-18 11:23 31.28757 34.72306 656 ft 0 kts 235°
2026-04-18 11:34 31.28757 34.72305 653 ft 0 kts 232°
2026-04-18 11:34 31.28755 34.72309 674 ft 3 kts 233°
2026-04-18 11:34 31.28751 34.72314 685 ft 1 kts 239°
2026-04-18 11:34 31.28740 34.72320 726 ft 5 kts 223°
2026-04-18 11:35 31.28693 34.72326 729 ft 26 kts 261°
2026-04-18 11:35 31.29061 34.71843 835 ft 98 kts 300°
2026-04-18 11:35 31.29648 34.71410 1109 ft 97 kts 330°
2026-04-18 11:35 31.30233 34.71116 1337 ft 98 kts 307°
2026-04-18 11:36 31.30930 34.70609 1393 ft 128 kts 320°
2026-04-18 11:36 31.31842 34.70282 1308 ft 154 kts 349°
2026-04-18 11:36 31.32922 34.70275 1105 ft 154 kts 352°
2026-04-18 11:36 31.33971 34.70439 998 ft 153 kts
2026-04-18 11:37 31.34904 34.70970 1007 ft 140 kts
2026-04-18 11:37 31.35827 34.70925 840 ft 136 kts 352°
2026-04-18 11:37 31.36756 34.71284 850 ft 150 kts 11°
2026-04-18 11:37 31.37755 34.71849 820 ft 169 kts 22°
2026-04-18 11:38 31.38804 34.72503 732 ft 171 kts 20°
2026-04-18 11:38 31.39737 34.73216 768 ft 153 kts 26°
2026-04-18 11:38 31.40491 34.73982 869 ft 144 kts 33°
2026-04-18 11:38 31.41204 34.74847 972 ft 149 kts 51°
2026-04-18 11:39 31.42020 34.75347 946 ft 137 kts 348°
2026-04-18 11:39 31.42951 34.75796 992 ft 149 kts 16°
2026-04-18 11:39 31.43874 34.76419 880 ft 150 kts
2026-04-18 11:39 31.44895 34.76613 903 ft 165 kts
2026-04-18 11:40 31.45979 34.76974 838 ft 167 kts
2026-04-18 11:40 31.46992 34.77542 895 ft 155 kts 19°
2026-04-18 11:40 31.47994 34.77654 765 ft 154 kts 347°
2026-04-18 11:40 31.49079 34.77984 785 ft 167 kts 11°
2026-04-18 11:41 31.50146 34.78390 771 ft 151 kts 356°
2026-04-18 11:41 31.51134 34.78233 783 ft 153 kts 353°
2026-04-18 11:41 31.52190 34.78584 817 ft 164 kts 22°
2026-04-18 11:41 31.53115 34.79263 717 ft 161 kts 24°
2026-04-18 11:42 31.54136 34.79726 747 ft 161 kts
2026-04-18 11:42 31.55213 34.80031 696 ft 159 kts
2026-04-18 11:42 31.56278 34.80348 727 ft 162 kts
2026-04-18 11:42 31.57361 34.80613 691 ft 156 kts
2026-04-18 11:43 31.58420 34.80827 785 ft 157 kts 359°
2026-04-18 11:43 31.59511 34.81220 733 ft 167 kts 10°
2026-04-18 11:43 31.60616 34.81350 640 ft 157 kts 348°
2026-04-18 11:43 31.61755 34.81441 661 ft 164 kts 354°
2026-04-18 11:44 31.62893 34.81506 624 ft 167 kts 351°
2026-04-18 11:44 31.63902 34.81305 489 ft 126 kts 341°
2026-04-18 11:44 31.64845 34.81099 527 ft 145 kts 338°
2026-04-18 11:44 31.65860 34.80885 532 ft 154 kts 339°
2026-04-18 11:45 31.66927 34.80666 544 ft 163 kts 341°
2026-04-18 11:45 31.68071 34.80722 502 ft 174 kts 14°
2026-04-18 11:45 31.69165 34.81253 435 ft 175 kts 18°
2026-04-18 11:45 31.70271 34.81793 411 ft 170 kts 14°
2026-04-18 11:46 31.71324 34.82067 520 ft 149 kts 351°
2026-04-18 11:46 31.72389 34.82028 398 ft 163 kts 358°
2026-04-18 11:46 31.73543 34.82183 351 ft 165 kts 354°
2026-04-18 11:46 31.74563 34.82334 471 ft 130 kts
2026-04-18 11:47 31.75447 34.82481 427 ft 142 kts 355°
2026-04-18 11:47 31.76477 34.82817 539 ft 161 kts 12°
2026-04-18 11:47 31.77570 34.83297 557 ft 173 kts 14°
2026-04-18 11:47 31.78648 34.83830 520 ft 163 kts 16°
2026-04-18 11:48 31.79655 34.84386 520 ft 161 kts 15°
2026-04-18 11:48 31.80668 34.84979 509 ft 167 kts 20°
2026-04-18 11:48 31.81762 34.85576 511 ft 172 kts 16°
2026-04-18 11:48 31.82802 34.86040 697 ft 158 kts 11°
2026-04-18 11:49 31.83810 34.86425 810 ft 152 kts
2026-04-18 11:49 31.84841 34.86906 819 ft 161 kts 21°
2026-04-18 11:49 31.85891 34.87282 792 ft 161 kts
2026-04-18 11:49 31.86971 34.87503 707 ft 160 kts
2026-04-18 11:50 31.88076 34.87864 666 ft 172 kts 10°
2026-04-18 11:50 31.89187 34.88304 658 ft 164 kts
2026-04-18 11:50 31.90217 34.88612 894 ft 134 kts 359°
2026-04-18 11:50 31.90903 34.88106 984 ft 132 kts 287°
2026-04-18 11:51 31.91287 34.87092 878 ft 138 kts 294°
2026-04-18 11:51 31.91747 34.86177 968 ft 129 kts 286°
2026-04-18 11:51 31.91945 34.85152 977 ft 132 kts 273°
2026-04-18 11:51 31.92127 34.84087 1064 ft 133 kts 279°
2026-04-18 11:52 31.92614 34.83107 986 ft 141 kts 298°
2026-04-18 11:52 31.93136 34.82171 986 ft 136 kts 294°
2026-04-18 11:52 31.93969 34.81520 847 ft 158 kts 343°
2026-04-18 11:52 31.94759 34.80958 1012 ft 130 kts 284°
2026-04-18 11:53 31.95002 34.79957 934 ft 131 kts 283°
2026-04-18 11:53 31.95306 34.78896 1003 ft 131 kts 283°
2026-04-18 11:53 31.95630 34.77906 867 ft 133 kts 288°
2026-04-18 11:53 31.96172 34.77038 564 ft 136 kts 293°
2026-04-18 11:54 31.96127 34.76006 536 ft 126 kts 272°
2026-04-18 11:54 31.96736 34.75448 541 ft 62 kts 264°
2026-04-18 11:54 31.96790 34.75495 358 ft 52 kts 304°
2026-04-18 11:54 31.96699 34.75166 239 ft 53 kts 206°
2026-04-18 11:55 31.96704 34.75249 144 ft 10 kts 300°
2026-04-18 11:55 31.96739 34.75220 71 ft 1 kts 308°
2026-04-18 11:55 31.96745 34.75220 65 ft 2 kts 340°
2026-04-18 11:55 31.96743 34.75221 65 ft 1 kts
2026-04-18 11:56 31.96744 34.75221 62 ft 0 kts